Time;durP1;ratioP1;P1;durP2;ratioP2;P2;SDS_P1;SDS_P2;PMS_P1;PMS_P2;Temp;Humidity;BMP_temperature;BMP_pressure;BME280_temperature;BME280_humidity;BME280_pressure;Samples;Min_cycle;Max_cycle;Signal;HPM_P1;HPM_P2
2021/04/11 00:00:41;;;;;;;11.32;6.18;;;9.90;48.00;;;;;;5058884;28;20632;-73
2021/04/11 00:03:11;;;;;;;9.52;5.40;;;9.90;48.20;;;;;;5075241;28;20190;-73
2021/04/11 00:05:41;;;;;;;6.55;4.22;;;9.90;47.90;;;;;;5071305;28;20242;-74
2021/04/11 00:08:11;;;;;;;7.80;5.50;;;9.90;47.70;;;;;;5054999;28;20219;-73
2021/04/11 00:10:41;;;;;;;8.38;5.47;;;9.90;47.80;;;;;;5057366;28;20210;-73
2021/04/11 00:13:12;;;;;;;8.07;5.38;;;10.00;47.10;;;;;;5075174;28;20186;-73
2021/04/11 00:15:38;;;;;;;10.55;4.25;;;10.00;47.20;;;;;;5072714;28;20212;-73
2021/04/11 00:18:09;;;;;;;5.38;3.20;;;10.00;47.00;;;;;;5055418;28;20202;-73
2021/04/11 00:20:36;;;;;;;5.53;3.88;;;10.10;47.20;;;;;;5074981;28;20269;-73
2021/04/11 00:23:03;;;;;;;4.38;3.60;;;10.00;47.00;;;;;;5074934;28;20194;-73
2021/04/11 00:25:33;;;;;;;6.60;4.07;;;10.00;47.10;;;;;;5034648;28;20227;-73
2021/04/11 00:28:00;;;;;;;5.82;4.30;;;10.00;47.10;;;;;;5034649;28;20195;-73
2021/04/11 00:30:28;;;;;;;7.22;3.88;;;10.00;47.20;;;;;;5072395;28;20223;-73
2021/04/11 00:32:58;;;;;;;8.00;4.00;;;10.00;47.20;;;;;;5074525;28;20197;-73
2021/04/11 00:35:26;;;;;;;7.22;4.32;;;10.00;47.40;;;;;;5056051;28;20187;-73
2021/04/11 00:37:55;;;;;;;7.88;4.35;;;10.00;47.30;;;;;;5054479;28;20225;-73
2021/04/11 00:40:26;;;;;;;6.10;3.95;;;10.00;47.50;;;;;;5070905;28;20268;-73
2021/04/11 00:42:56;;;;;;;6.97;4.25;;;10.00;47.50;;;;;;5074438;28;20200;-73
2021/04/11 00:45:30;;;;;;;7.85;3.97;;;10.00;47.50;;;;;;5057246;28;20222;-73
2021/04/11 00:47:57;;;;;;;5.15;4.40;;;10.00;47.10;;;;;;5053545;28;20194;-73
2021/04/11 00:50:25;;;;;;;6.88;4.25;;;10.00;47.40;;;;;;5069578;28;20198;-73
2021/04/11 00:52:53;;;;;;;4.55;3.75;;;10.00;47.10;;;;;;5074114;28;20281;-73
2021/04/11 00:55:23;;;;;;;5.72;3.35;;;10.00;47.20;;;;;;5059098;28;20186;-73
2021/04/11 00:57:51;;;;;;;4.18;3.15;;;10.00;47.20;;;;;;5054122;28;20191;-73
2021/04/11 01:00:19;;;;;;;3.83;3.22;;;10.00;47.60;;;;;;5067028;28;20535;-73
2021/04/11 01:02:46;;;;;;;8.27;3.90;;;10.00;48.20;;;;;;5073957;28;20236;-73
2021/04/11 01:05:17;;;;;;;5.47;3.95;;;9.90;49.80;;;;;;5071820;28;20218;-73
2021/04/11 01:07:49;;;;;;;5.07;3.50;;;9.90;49.70;;;;;;5065153;28;20228;-73
2021/04/11 01:10:20;;;;;;;3.85;3.05;;;9.90;49.90;;;;;;5053919;28;20285;-73
2021/04/11 01:12:48;;;;;;;5.18;3.85;;;10.00;48.60;;;;;;5061384;28;20268;-73
2021/04/11 01:15:20;;;;;;;7.20;4.28;;;10.00;48.20;;;;;;5073701;28;20568;-73
2021/04/11 01:17:47;;;;;;;8.05;3.58;;;9.90;49.80;;;;;;5066277;28;20183;-73
2021/04/11 01:20:15;;;;;;;6.32;3.65;;;9.90;49.60;;;;;;5053749;28;20201;-73
2021/04/11 01:22:56;;;;;;;6.10;3.50;;;9.80;49.20;;;;;;5059205;28;20268;-73
2021/04/11 01:25:31;;;;;;;7.65;3.45;;;9.80;49.00;;;;;;5073756;28;20232;-73
2021/04/11 01:27:59;;;;;;;5.53;3.70;;;9.80;48.80;;;;;;5065526;28;20217;-73
2021/04/11 01:30:28;;;;;;;4.10;3.20;;;9.90;49.00;;;;;;5053240;28;20195;-73
2021/04/11 01:32:58;;;;;;;6.47;4.00;;;9.90;49.30;;;;;;5059135;28;20744;-73
2021/04/11 01:35:28;;;;;;;6.50;4.25;;;9.90;49.20;;;;;;5070661;28;20201;-73
2021/04/11 01:37:56;;;;;;;7.13;4.55;;;9.90;49.20;;;;;;5053276;28;20561;-73
2021/04/11 01:40:39;;;;;;;5.65;3.63;;;9.90;49.10;;;;;;5054045;28;20213;-73
2021/04/11 01:43:07;;;;;;;5.70;3.55;;;9.90;49.50;;;;;;5073098;28;20198;-73
2021/04/11 01:45:37;;;;;;;7.10;4.05;;;9.80;49.40;;;;;;5070591;28;20304;-73
2021/04/11 01:48:05;;;;;;;4.60;3.50;;;9.80;50.00;;;;;;5053100;28;20569;-73
2021/04/11 01:50:31;;;;;;;4.68;3.20;;;9.70;50.80;;;;;;5053602;28;20208;-73
2021/04/11 01:52:59;;;;;;;5.07;3.47;;;9.80;50.50;;;;;;5072960;28;20197;-73
2021/04/11 01:55:28;;;;;;;5.32;2.97;;;9.80;50.50;;;;;;5072855;28;20190;-73
2021/04/11 01:57:59;;;;;;;6.43;3.20;;;9.70;50.50;;;;;;5050736;28;20191;-73
2021/04/11 02:00:30;;;;;;;3.58;2.83;;;9.70;50.50;;;;;;5052890;28;20190;-73
2021/04/11 02:02:59;;;;;;;4.32;2.92;;;9.70;49.70;;;;;;5071738;28;20273;-73
2021/04/11 02:05:31;;;;;;;3.60;3.00;;;9.60;49.60;;;;;;5056347;28;20218;-73
2021/04/11 02:07:58;;;;;;;5.57;3.25;;;9.70;49.70;;;;;;5057500;28;20216;-73
2021/04/11 02:10:32;;;;;;;5.25;2.95;;;9.70;49.80;;;;;;5072658;28;20193;-73
2021/04/11 02:12:59;;;;;;;3.85;2.65;;;9.70;49.70;;;;;;5058072;28;20190;-73
2021/04/11 02:15:30;;;;;;;4.15;2.90;;;9.80;50.10;;;;;;5052262;28;20554;-73
2021/04/11 02:17:58;;;;;;;5.97;3.40;;;9.70;50.50;;;;;;5065587;28;20186;-73
2021/04/11 02:20:29;;;;;;;4.40;3.08;;;9.80;51.30;;;;;;5072823;28;20201;-73
2021/04/11 02:22:56;;;;;;;4.97;3.90;;;9.80;51.20;;;;;;5059688;28;20190;-73
2021/04/11 02:25:25;;;;;;;5.70;3.75;;;9.80;51.30;;;;;;5052253;28;20210;-73
2021/04/11 02:27:55;;;;;;;5.78;4.63;;;9.80;51.70;;;;;;5063330;28;20190;-73
2021/04/11 02:30:23;;;;;;;6.05;3.20;;;9.70;52.00;;;;;;5072431;28;20190;-73
2021/04/11 02:32:51;;;;;;;7.28;3.65;;;9.60;51.20;;;;;;5061533;28;20195;-73
2021/04/11 02:35:22;;;;;;;4.65;3.58;;;9.60;51.30;;;;;;5052476;28;20190;-73
2021/04/11 02:37:53;;;;;;;4.97;3.33;;;9.60;51.60;;;;;;5061499;28;20275;-73
2021/04/11 02:40:27;;;;;;;5.20;3.60;;;9.60;51.70;;;;;;5072308;28;20200;-73
2021/04/11 02:42:57;;;;;;;4.78;3.25;;;9.60;52.00;;;;;;5062413;28;20193;-73
2021/04/11 02:45:26;;;;;;;6.22;2.83;;;9.50;52.30;;;;;;5052359;28;20196;-73
2021/04/11 02:47:54;;;;;;;5.20;2.83;;;9.50;52.20;;;;;;5060393;28;20200;-73
2021/04/11 02:50:22;;;;;;;3.55;3.10;;;9.60;51.90;;;;;;5072439;28;20189;-73
2021/04/11 02:52:54;;;;;;;5.32;3.20;;;9.60;52.40;;;;;;5064403;28;20554;-73
2021/04/11 02:55:22;;;;;;;3.58;2.85;;;9.50;52.40;;;;;;5052217;28;20218;-73
2021/04/11 02:57:49;;;;;;;4.78;3.10;;;9.50;52.00;;;;;;5058559;28;20190;-72
2021/04/11 03:00:21;;;;;;;4.00;2.90;;;9.60;51.90;;;;;;5068837;28;20205;-73
2021/04/11 03:02:48;;;;;;;9.60;3.25;;;9.60;52.10;;;;;;5051154;28;20195;-73
2021/04/11 03:05:18;;;;;;;5.70;3.40;;;9.50;52.30;;;;;;5053620;28;20198;-73
2021/04/11 03:07:47;;;;;;;4.45;3.00;;;9.50;52.50;;;;;;5071967;28;20624;-73
2021/04/11 03:10:20;;;;;;;4.63;3.72;;;9.50;52.30;;;;;;5072102;28;20562;-73
2021/04/11 03:12:49;;;;;;;3.70;3.30;;;9.50;52.50;;;;;;5056168;28;20190;-73
2021/04/11 03:15:18;;;;;;;5.97;3.72;;;9.50;52.80;;;;;;5056327;28;20210;-73
2021/04/11 03:17:49;;;;;;;3.92;3.15;;;9.50;53.00;;;;;;5075950;28;20232;-73
2021/04/11 03:20:20;;;;;;;4.85;3.83;;;9.40;52.70;;;;;;5075197;28;20205;-73
2021/04/11 03:22:47;;;;;;;6.75;3.85;;;9.40;52.60;;;;;;5055919;28;20285;-73
2021/04/11 03:25:15;;;;;;;4.28;3.88;;;9.40;52.70;;;;;;5055746;28;20186;-73
2021/04/11 03:27:48;;;;;;;4.60;3.00;;;9.40;52.80;;;;;;5074777;28;20194;-73
2021/04/11 03:30:21;;;;;;;5.60;3.60;;;9.40;53.10;;;;;;5072638;28;20185;-73
2021/04/11 03:32:54;;;;;;;9.85;6.53;;;9.40;53.40;;;;;;5055500;28;20198;-73
2021/04/11 03:35:25;;;;;;;7.03;4.88;;;9.40;53.20;;;;;;5057741;28;20228;-73
2021/04/11 03:37:53;;;;;;;5.85;3.65;;;9.30;53.30;;;;;;5075568;28;20557;-73
2021/04/11 03:40:26;;;;;;;4.10;3.30;;;9.30;53.30;;;;;;5073177;28;20557;-73
2021/04/11 03:42:58;;;;;;;4.97;2.72;;;9.20;53.50;;;;;;5055421;28;20187;-72
2021/04/11 03:45:28;;;;;;;5.75;3.30;;;9.20;53.60;;;;;;5058299;28;20193;-73
2021/04/11 03:48:00;;;;;;;3.40;2.70;;;9.20;53.50;;;;;;5075485;28;20560;-73
2021/04/11 03:50:31;;;;;;;5.80;2.90;;;9.20;53.90;;;;;;5071980;28;20190;-73
2021/04/11 03:53:02;;;;;;;3.08;2.78;;;9.20;53.80;;;;;;5055272;28;20194;-73
2021/04/11 03:55:33;;;;;;;3.72;2.95;;;9.30;54.10;;;;;;5056914;28;20218;-73
2021/04/11 03:58:03;;;;;;;4.47;3.20;;;9.30;53.70;;;;;;5075504;28;20251;-73
2021/04/11 04:00:33;;;;;;;3.83;2.60;;;9.30;53.50;;;;;;5057267;28;20547;-73
2021/04/11 04:03:11;;;;;;;6.82;3.95;;;9.40;53.30;;;;;;5055349;28;20224;-73
2021/04/11 04:05:39;;;;;;;4.95;3.35;;;9.40;53.00;;;;;;5073343;28;20185;-73
2021/04/11 04:08:07;;;;;;;5.03;3.35;;;9.50;52.50;;;;;;5075332;28;20699;-73
2021/04/11 04:10:38;;;;;;;181.60;66.13;;;9.50;52.70;;;;;;5057791;28;20189;-73
2021/04/11 04:13:09;;;;;;;111.75;48.40;;;9.50;53.10;;;;;;5055161;28;20194;-74
2021/04/11 04:16:03;;;;;;;99.45;40.17;;;9.40;52.80;;;;;;5071445;28;20218;-73
2021/04/11 04:18:57;;;;;;;94.35;35.60;;;9.40;53.20;;;;;;5075295;28;20193;-73
2021/04/11 04:21:49;;;;;;;38.97;17.13;;;9.40;53.10;;;;;;5033706;28;20210;-73
2021/04/11 04:24:30;;;;;;;34.05;15.80;;;9.40;52.70;;;;;;5043338;28;20236;-73
2021/04/11 04:27:02;;;;;;;25.58;12.23;;;9.40;53.00;;;;;;5072057;28;20216;-73
2021/04/11 04:29:34;;;;;;;32.30;11.15;;;9.30;53.40;;;;;;5054916;28;20209;-73
2021/04/11 04:32:23;;;;;;;25.48;12.48;;;9.40;53.20;;;;;;5056756;28;20197;-74
2021/04/11 04:35:03;;;;;;;22.88;11.00;;;9.40;53.20;;;;;;5074919;28;20193;-73
2021/04/11 04:37:48;;;;;;;18.70;9.40;;;9.40;52.70;;;;;;5068582;28;20186;-73
2021/04/11 04:40:27;;;;;;;19.60;8.98;;;9.40;53.30;;;;;;5054745;28;20229;-73
2021/04/11 04:42:57;;;;;;;16.67;8.40;;;9.50;53.00;;;;;;5071622;28;20190;-73
2021/04/11 04:45:32;;;;;;;14.30;7.43;;;9.50;53.20;;;;;;5074439;28;20232;-73
2021/04/11 04:48:17;;;;;;;11.00;6.22;;;9.40;53.60;;;;;;5056692;28;20248;-73
2021/04/11 04:50:49;;;;;;;10.65;6.53;;;9.40;53.30;;;;;;5054322;28;20236;-73
2021/04/11 04:53:22;;;;;;;13.00;6.30;;;9.50;53.30;;;;;;5073096;28;20239;-73
2021/04/11 04:55:53;;;;;;;9.35;5.95;;;9.50;53.60;;;;;;5066679;28;20214;-73
2021/04/11 04:58:26;;;;;;;9.98;6.47;;;9.50;54.00;;;;;;5054202;28;20248;-73
2021/04/11 05:00:57;;;;;;;7.93;5.20;;;9.40;54.30;;;;;;5060846;28;20190;-73
2021/04/11 05:03:30;;;;;;;11.40;5.85;;;9.40;54.30;;;;;;5074238;28;20262;-73
2021/04/11 05:06:02;;;;;;;8.55;5.15;;;9.50;54.20;;;;;;5066653;28;20208;-73
2021/04/11 05:08:34;;;;;;;7.93;4.80;;;9.50;54.40;;;;;;5054221;28;20267;-73
2021/04/11 05:11:07;;;;;;;8.52;5.32;;;9.50;54.60;;;;;;5060106;28;20660;-73
2021/04/11 05:13:42;;;;;;;5.07;4.15;;;9.60;54.80;;;;;;5074041;28;20194;-73
2021/04/11 05:16:16;;;;;;;6.35;4.20;;;9.60;55.00;;;;;;5062706;28;20218;-74
2021/04/11 05:18:47;;;;;;;6.13;3.50;;;9.60;55.30;;;;;;5053896;28;20277;-73
2021/04/11 05:21:19;;;;;;;8.70;3.97;;;9.70;55.30;;;;;;5064301;28;20196;-73
2021/04/11 05:23:52;;;;;;;7.82;4.10;;;9.70;55.30;;;;;;5069001;28;20191;-73
2021/04/11 05:26:23;;;;;;;7.45;3.53;;;9.70;56.30;;;;;;5053711;28;20197;-73
2021/04/11 05:28:54;;;;;;;6.70;4.68;;;9.70;57.70;;;;;;5057100;28;20178;-73
2021/04/11 05:31:25;;;;;;;6.88;5.60;;;9.70;57.30;;;;;;5073834;28;20232;-73
2021/04/11 05:33:55;;;;;;;7.32;4.53;;;9.70;57.40;;;;;;5069261;28;20547;-73
2021/04/11 05:36:37;;;;;;;6.60;3.80;;;9.70;57.00;;;;;;5053381;28;20226;-73
2021/04/11 05:39:17;;;;;;;10.25;4.72;;;9.90;57.40;;;;;;5057757;28;20196;-73
2021/04/11 05:41:52;;;;;;;5.85;4.03;;;9.90;57.30;;;;;;5073313;28;20266;-73
2021/04/11 05:44:27;;;;;;;6.05;4.20;;;10.10;56.30;;;;;;5066958;28;20643;-73
2021/04/11 05:47:01;;;;;;;6.20;4.25;;;10.20;56.30;;;;;;5053431;28;20686;-73
2021/04/11 05:49:47;;;;;;;6.25;3.60;;;10.20;56.00;;;;;;5059875;28;20187;-74
2021/04/11 05:52:20;;;;;;;6.88;4.65;;;10.30;56.30;;;;;;5067648;28;20594;-73
2021/04/11 05:54:51;;;;;;;4.68;3.20;;;10.40;56.20;;;;;;5053138;28;20195;-73
2021/04/11 05:57:24;;;;;;;11.00;5.32;;;10.40;56.10;;;;;;5053937;28;20312;-73
2021/04/11 05:59:55;;;;;;;8.95;4.55;;;10.50;56.50;;;;;;5053251;28;20226;-73
2021/04/11 06:02:35;;;;;;;6.85;4.90;;;10.60;56.50;;;;;;5058473;28;20185;-73
2021/04/11 06:05:10;;;;;;;8.27;3.97;;;10.60;56.30;;;;;;5073224;28;20541;-73
2021/04/11 06:07:44;;;;;;;6.65;4.07;;;10.70;56.30;;;;;;5065606;28;20585;-73
2021/04/11 06:10:16;;;;;;;6.82;4.80;;;10.80;56.00;;;;;;5052928;28;20193;-73
2021/04/11 06:12:50;;;;;;;6.20;4.65;;;10.80;55.60;;;;;;5063774;28;20323;-73
2021/04/11 06:15:25;;;;;;;6.03;4.13;;;10.90;54.40;;;;;;5073013;28;20201;-73
2021/04/11 06:17:54;;;;;;;6.63;4.72;;;11.00;54.40;;;;;;5060460;28;20631;-73
2021/04/11 06:20:22;;;;;;;6.15;4.68;;;11.10;53.50;;;;;;5056062;28;20186;-73
2021/04/11 06:22:59;;;;;;;5.57;4.97;;;11.10;52.30;;;;;;5072870;28;20200;-73
2021/04/11 06:25:34;;;;;;;4.40;4.00;;;11.20;52.70;;;;;;5068392;28;20218;-73
2021/04/11 06:28:11;;;;;;;8.63;5.93;;;11.30;52.00;;;;;;5052864;28;20185;-73
2021/04/11 06:30:43;;;;;;;8.52;5.40;;;11.40;51.50;;;;;;5057357;28;20185;-73
2021/04/11 06:33:15;;;;;;;10.90;4.65;;;11.50;52.20;;;;;;5072758;28;20202;-73
2021/04/11 06:35:48;;;;;;;5.35;4.28;;;11.60;51.10;;;;;;5067122;28;20237;-73
2021/04/11 06:38:23;;;;;;;9.20;4.72;;;11.60;50.30;;;;;;5052700;28;20225;-73
2021/04/11 06:41:14;;;;;;;6.32;4.63;;;11.70;50.60;;;;;;5057790;28;20239;-73
2021/04/11 06:43:57;;;;;;;5.60;4.70;;;11.80;50.50;;;;;;5071388;28;20186;-74
2021/04/11 06:46:32;;;;;;;5.88;3.85;;;12.00;50.20;;;;;;5062203;28;20178;-74
2021/04/11 06:49:30;;;;;;;8.75;5.10;;;12.10;49.20;;;;;;5058882;28;20272;-74
2021/04/11 06:52:39;;;;;;;6.32;4.88;;;12.20;48.70;;;;;;5072637;28;20185;-74
2021/04/11 06:55:29;;;;;;;7.65;6.03;;;12.40;48.20;;;;;;5033223;28;20203;-74
2021/04/11 06:58:02;;;;;;;6.38;5.00;;;12.60;48.40;;;;;;5032436;28;20638;-74
2021/04/11 07:00:49;;;;;;;6.85;4.43;;;12.80;48.60;;;;;;5068257;28;20281;-74
2021/04/11 07:04:27;;;;;;;6.70;4.55;;;13.10;47.70;;;;;;5072455;28;20189;-74
2021/04/11 07:07:36;;;;;;;4.95;3.33;;;13.50;47.20;;;;;;5032268;28;20218;-74
2021/04/11 07:10:20;;;;;;;4.35;3.65;;;13.80;46.30;;;;;;5045392;28;20557;-73
2021/04/11 07:13:26;;;;;;;4.68;3.45;;;14.10;45.60;;;;;;5048596;28;20649;-74
2021/04/11 07:16:25;;;;;;;5.50;3.20;;;14.40;45.20;;;;;;5050818;28;20232;-74
2021/04/11 07:19:25;;;;;;;4.78;2.88;;;14.70;43.70;;;;;;5050694;28;20190;-74
2021/04/11 07:22:41;;;;;;;4.70;2.63;;;14.90;43.00;;;;;;5052892;28;20214;-74
2021/04/11 07:25:43;;;;;;;6.57;3.28;;;15.00;42.30;;;;;;5048129;28;20665;-74
2021/04/11 07:28:30;;;;;;;4.38;3.20;;;15.20;42.10;;;;;;5053530;28;20239;-74
2021/04/11 07:31:09;;;;;;;4.30;3.90;;;15.40;41.60;;;;;;5050516;28;20209;-74
2021/04/11 07:34:29;;;;;;;5.07;3.83;;;15.60;42.30;;;;;;5050520;28;20190;-73
2021/04/11 07:37:14;;;;;;;4.25;2.97;;;16.00;42.60;;;;;;4964443;28;20225;-74
2021/04/11 07:40:02;;;;;;;5.67;3.60;;;16.50;41.90;;;;;;5045035;28;20194;-74
2021/04/11 07:43:13;;;;;;;8.03;5.30;;;17.00;41.50;;;;;;5050461;28;20856;-74
2021/04/11 07:46:18;;;;;;;6.33;5.67;;;17.70;41.60;;;;;;5051142;28;20992;-74
2021/04/11 07:49:19;;;;;;;5.30;4.20;;;18.60;40.20;;;;;;5030504;28;20440;-74
2021/04/11 07:51:57;;;;;;;4.73;4.07;;;19.20;38.40;;;;;;5050502;28;20474;-74
2021/04/11 07:54:57;;;;;;;4.63;3.43;;;19.90;37.70;;;;;;5046717;28;20493;-74
2021/04/11 07:57:38;;;;;;;4.23;2.93;;;20.70;36.50;;;;;;5043023;28;20491;-74
2021/04/11 08:00:24;;;;;;;6.00;2.57;;;21.60;35.30;;;;;;5054190;28;20447;-75
2021/04/11 08:03:20;;;;;;;3.37;2.87;;;22.40;32.40;;;;;;5053761;28;20437;-74
2021/04/11 08:06:41;;;;;;;5.10;3.93;;;23.10;30.70;;;;;;5053055;28;20463;-74
2021/04/11 08:09:19;;;;;;;4.63;3.97;;;23.80;30.20;;;;;;5007011;28;20443;-74
2021/04/11 08:12:15;;;;;;;6.47;2.63;;;24.40;30.00;;;;;;4995533;28;20529;-74
2021/04/11 08:14:53;;;;;;;4.40;2.53;;;25.10;29.10;;;;;;4997251;28;20473;-75
2021/04/11 08:17:54;;;;;;;5.10;2.43;;;26.00;28.60;;;;;;5012693;28;20493;-75
2021/04/11 08:20:38;;;;;;;6.77;2.80;;;26.90;26.30;;;;;;5009502;28;20509;-75
2021/04/11 08:23:31;;;;;;;2.87;1.97;;;27.50;25.50;;;;;;4995007;28;20810;-76
2021/04/11 08:26:29;;;;;;;4.43;1.80;;;28.30;25.40;;;;;;5007409;28;20439;-75
2021/04/11 08:29:39;;;;;;;4.07;2.20;;;29.20;23.70;;;;;;5007909;28;20443;-76
2021/04/11 08:32:24;;;;;;;4.10;1.90;;;30.10;23.40;;;;;;5012636;28;20996;-75
2021/04/11 08:35:32;;;;;;;2.93;2.20;;;30.80;21.90;;;;;;5009653;28;20450;-75
2021/04/11 08:38:23;;;;;;;3.90;2.13;;;31.10;21.00;;;;;;4965277;28;20478;-75
2021/04/11 08:41:19;;;;;;;5.03;1.90;;;31.30;20.10;;;;;;4995120;28;20446;-75
2021/04/11 08:44:09;;;;;;;4.77;1.90;;;31.10;19.60;;;;;;5005666;28;20446;-75
2021/04/11 08:46:50;;;;;;;2.97;2.13;;;31.10;19.50;;;;;;5011692;28;20527;-75
2021/04/11 08:49:23;;;;;;;6.43;1.70;;;31.40;18.70;;;;;;4996591;28;20442;-75
2021/04/11 08:52:00;;;;;;;2.57;1.43;;;31.80;18.30;;;;;;5011004;28;20450;-75
2021/04/11 08:54:43;;;;;;;4.77;2.40;;;32.30;18.80;;;;;;5012157;28;20905;-75
2021/04/11 08:57:16;;;;;;;3.27;1.90;;;32.60;17.40;;;;;;5005721;28;20434;-75
2021/04/11 08:59:54;;;;;;;5.10;2.30;;;32.70;18.30;;;;;;4994843;28;20803;-75
2021/04/11 09:02:51;;;;;;;3.70;2.33;;;33.00;17.70;;;;;;5007328;28;20442;-75
2021/04/11 09:05:25;;;;;;;3.10;2.13;;;33.20;16.60;;;;;;4999231;28;20450;-75
2021/04/11 09:08:04;;;;;;;4.50;2.00;;;33.60;17.40;;;;;;5045654;28;20461;-75
2021/04/11 09:10:47;;;;;;;2.90;1.90;;;34.70;17.10;;;;;;5055255;28;20529;-75
2021/04/11 09:13:22;;;;;;;3.53;2.20;;;35.10;15.20;;;;;;5052330;28;20447;-75
2021/04/11 09:15:56;;;;;;;3.97;1.90;;;34.10;15.10;;;;;;5056427;28;20936;-75
2021/04/11 09:18:37;;;;;;;4.13;1.63;;;32.80;15.50;;;;;;5052048;28;20872;-75
2021/04/11 09:21:39;;;;;;;3.43;1.90;;;31.20;15.80;;;;;;5052191;28;20437;-74
2021/04/11 09:24:11;;;;;;;2.80;1.63;;;29.70;17.00;;;;;;5021177;28;20433;-75
2021/04/11 09:27:14;;;;;;;2.70;2.17;;;28.30;18.10;;;;;;5052649;28;20534;-74
2021/04/11 09:29:51;;;;;;;3.33;1.70;;;27.30;19.50;;;;;;5050322;28;20439;-74
2021/04/11 09:32:36;;;;;;;3.00;2.03;;;26.40;20.70;;;;;;5054945;28;20441;-74
2021/04/11 09:35:35;;;;;;;2.30;1.80;;;25.70;21.80;;;;;;5052643;28;20480;-74
2021/04/11 09:38:28;;;;;;;5.17;2.20;;;25.10;22.70;;;;;;5052820;28;20468;-73
2021/04/11 09:41:36;;;;;;;4.63;2.50;;;24.70;23.40;;;;;;5049997;28;20794;-73
2021/04/11 09:44:28;;;;;;;4.13;2.77;;;24.50;24.10;;;;;;5044486;28;20799;-74
2021/04/11 09:47:15;;;;;;;3.27;2.50;;;24.30;24.70;;;;;;5051442;28;21484;-74
2021/04/11 09:50:20;;;;;;;12.13;9.77;;;24.20;24.90;;;;;;5052467;28;20941;-74
2021/04/11 09:53:33;;;;;;;3.47;2.77;;;24.20;25.70;;;;;;5051803;28;20490;-74
2021/04/11 09:56:12;;;;;;;3.80;2.07;;;24.50;25.80;;;;;;5051894;28;20496;-74
2021/04/11 09:59:18;;;;;;;2.73;2.20;;;25.30;25.20;;;;;;5051558;28;20471;-75
2021/04/11 10:01:53;;;;;;;5.30;2.03;;;26.40;25.00;;;;;;5042475;28;20466;-74
2021/04/11 10:04:45;;;;;;;2.67;1.97;;;27.20;23.80;;;;;;5052020;28;20433;-75
2021/04/11 10:07:33;;;;;;;3.13;1.97;;;27.90;23.80;;;;;;5046701;28;20492;-75
2021/04/11 10:10:12;;;;;;;2.70;1.47;;;28.60;22.90;;;;;;5053629;28;20444;-75
2021/04/11 10:13:12;;;;;;;3.80;1.87;;;29.00;21.80;;;;;;5051810;28;20532;-75
2021/04/11 10:15:43;;;;;;;2.57;1.60;;;29.30;20.60;;;;;;5048340;28;20518;-75
2021/04/11 10:18:26;;;;;;;3.60;1.60;;;29.30;20.50;;;;;;5054387;28;20517;-75
2021/04/11 10:21:07;;;;;;;2.80;1.53;;;29.40;21.30;;;;;;5051507;28;20805;-75
2021/04/11 10:23:49;;;;;;;2.50;1.73;;;29.60;20.70;;;;;;5047077;28;20953;-75
2021/04/11 10:26:22;;;;;;;3.73;2.10;;;29.80;20.40;;;;;;5050908;28;20476;-75
2021/04/11 10:28:55;;;;;;;2.37;1.57;;;30.10;21.50;;;;;;5047143;28;20539;-75
2021/04/11 10:31:31;;;;;;;3.90;1.50;;;30.20;20.60;;;;;;5052157;28;20755;-75
2021/04/11 10:34:08;;;;;;;2.80;1.90;;;30.40;21.60;;;;;;5046898;28;20523;-75
2021/04/11 10:36:41;;;;;;;2.90;1.40;;;31.30;21.70;;;;;;5052464;28;20436;-76
2021/04/11 10:39:18;;;;;;;2.13;1.47;;;32.30;18.90;;;;;;5050877;28;20433;-76
2021/04/11 10:42:03;;;;;;;2.47;1.50;;;32.50;17.40;;;;;;5051146;28;20496;-76
2021/04/11 10:44:59;;;;;;;3.50;2.33;;;32.60;17.10;;;;;;5047252;28;20460;-75
2021/04/11 10:47:53;;;;;;;11.93;10.33;;;32.10;15.80;;;;;;5053930;28;20496;-75
2021/04/11 10:50:27;;;;;;;3.67;1.90;;;31.10;16.00;;;;;;5050722;28;20443;-75
2021/04/11 10:53:16;;;;;;;3.13;1.80;;;30.20;15.80;;;;;;5050435;28;20437;-75
2021/04/11 10:56:00;;;;;;;2.90;1.30;;;29.50;16.10;;;;;;5050710;28;20514;-75
2021/04/11 10:58:49;;;;;;;5.40;1.60;;;29.00;17.20;;;;;;5049020;28;20799;-75
2021/04/11 11:01:45;;;;;;;3.03;1.40;;;28.40;17.80;;;;;;5050674;28;20474;-75
2021/04/11 11:04:44;;;;;;;2.07;1.00;;;27.90;18.50;;;;;;5048033;28;20437;-74
2021/04/11 11:07:26;;;;;;;4.50;1.20;;;27.50;18.20;;;;;;5044578;28;20612;-75
2021/04/11 11:10:06;;;;;;;5.70;1.50;;;27.00;19.30;;;;;;5058438;28;20445;-74
2021/04/11 11:13:04;;;;;;;2.80;1.40;;;26.80;19.60;;;;;;5056586;28;20456;-74
2021/04/11 11:15:54;;;;;;;3.23;1.23;;;26.70;20.00;;;;;;5050644;28;20524;-74
2021/04/11 11:19:06;;;;;;;2.00;1.10;;;26.80;21.90;;;;;;5054891;28;20469;-74
2021/04/11 11:22:01;;;;;;;4.03;1.30;;;27.00;22.40;;;;;;5053308;28;20498;-74
2021/04/11 11:24:53;;;;;;;2.27;1.40;;;26.90;19.20;;;;;;5035212;28;20782;-75
2021/04/11 11:27:41;;;;;;;1.73;0.80;;;26.60;19.90;;;;;;5045906;28;20550;-75
2021/04/11 11:30:39;;;;;;;5.17;1.37;;;26.50;19.60;;;;;;5044267;28;20436;-75
2021/04/11 11:33:26;;;;;;;2.17;0.93;;;26.20;20.40;;;;;;5045406;28;20490;-75
2021/04/11 11:36:13;;;;;;;4.00;1.20;;;25.80;19.90;;;;;;5045871;28;20436;-75
2021/04/11 11:38:50;;;;;;;2.07;0.90;;;25.40;19.20;;;;;;5056445;28;20448;-74
2021/04/11 11:41:32;;;;;;;2.43;0.90;;;25.20;18.90;;;;;;5054871;28;20436;-74
2021/04/11 11:44:05;;;;;;;2.77;1.20;;;25.10;19.30;;;;;;5053808;28;20449;-75
2021/04/11 11:46:40;;;;;;;2.07;1.20;;;25.20;19.10;;;;;;5043280;28;20532;-74
2021/04/11 11:49:16;;;;;;;3.13;1.30;;;25.20;19.30;;;;;;5057629;28;20440;-74
2021/04/11 11:51:52;;;;;;;2.60;1.00;;;24.70;19.30;;;;;;5056001;28;20806;-74
2021/04/11 11:54:26;;;;;;;2.00;0.97;;;24.40;20.00;;;;;;5053440;28;20782;-74
2021/04/11 11:57:11;;;;;;;2.47;1.27;;;24.30;20.10;;;;;;5053812;28;20529;-74
2021/04/11 11:59:43;;;;;;;2.33;1.10;;;24.30;19.80;;;;;;5047283;28;20449;-74
2021/04/11 12:02:22;;;;;;;1.67;0.73;;;24.20;19.80;;;;;;5048021;28;20939;-74
2021/04/11 12:05:04;;;;;;;1.93;0.70;;;24.10;19.70;;;;;;5053451;28;20463;-74
2021/04/11 12:07:44;;;;;;;2.40;0.80;;;24.10;20.00;;;;;;5056181;28;20583;-74
2021/04/11 12:10:30;;;;;;;2.40;1.10;;;24.20;19.60;;;;;;5054808;28;20540;-74
2021/04/11 12:13:10;;;;;;;2.17;0.73;;;23.80;19.20;;;;;;5053943;28;20490;-74
2021/04/11 12:15:43;;;;;;;2.53;0.90;;;23.50;18.70;;;;;;5053267;28;20444;-74
2021/04/11 12:18:14;;;;;;;1.40;0.50;;;23.50;20.50;;;;;;5053996;28;20506;-74
2021/04/11 12:20:44;;;;;;;1.50;0.63;;;23.60;21.30;;;;;;5053874;28;20456;-73
2021/04/11 12:23:23;;;;;;;1.60;0.70;;;23.80;21.40;;;;;;5053847;28;20437;-74
2021/04/11 12:25:50;;;;;;;1.70;0.80;;;24.00;19.80;;;;;;5053723;28;20498;-74
2021/04/11 12:28:24;;;;;;;4.17;0.80;;;24.10;19.10;;;;;;5053831;28;20433;-74
2021/04/11 12:30:52;;;;;;;1.80;0.70;;;24.30;19.10;;;;;;5053759;28;20527;-74
2021/04/11 12:33:33;;;;;;;2.23;0.90;;;24.40;20.40;;;;;;5053469;28;20432;-74
2021/04/11 12:36:08;;;;;;;1.70;0.70;;;24.60;22.80;;;;;;5051516;28;20452;-74
2021/04/11 12:38:42;;;;;;;4.23;0.80;;;24.50;19.20;;;;;;5053780;28;20479;-74
2021/04/11 12:41:17;;;;;;;1.50;0.80;;;24.40;19.50;;;;;;5053177;28;20436;-74
2021/04/11 12:43:57;;;;;;;1.63;0.80;;;24.20;19.30;;;;;;5052617;28;20456;-74
2021/04/11 12:46:29;;;;;;;2.17;1.00;;;24.00;20.60;;;;;;5053163;28;20987;-74
2021/04/11 12:49:08;;;;;;;2.53;0.97;;;24.00;20.40;;;;;;5053431;28;20449;-74
2021/04/11 12:51:42;;;;;;;1.70;0.80;;;23.70;18.80;;;;;;5049192;28;20911;-74
2021/04/11 12:54:17;;;;;;;1.50;0.60;;;23.40;19.10;;;;;;5053373;28;20429;-74
2021/04/11 12:56:54;;;;;;;1.60;0.67;;;23.20;20.30;;;;;;5052898;28;20468;-74
2021/04/11 12:59:23;;;;;;;1.60;0.80;;;23.00;20.40;;;;;;5053290;28;20432;-74
2021/04/11 13:01:53;;;;;;;2.37;0.80;;;22.70;19.30;;;;;;5053224;28;20444;-73
2021/04/11 13:04:27;;;;;;;1.40;0.60;;;22.40;20.10;;;;;;5053505;28;20545;-73
2021/04/11 13:07:01;;;;;;;1.40;0.60;;;22.20;20.50;;;;;;5052912;28;20496;-74
2021/04/11 13:09:47;;;;;;;1.50;0.60;;;22.10;20.60;;;;;;5048888;28;20429;-73
2021/04/11 13:12:23;;;;;;;1.60;0.60;;;22.10;21.80;;;;;;5052582;28;20452;-74
2021/04/11 13:15:01;;;;;;;1.50;0.60;;;21.90;21.90;;;;;;5053041;28;20444;-73
2021/04/11 13:17:36;;;;;;;1.60;0.67;;;21.50;21.80;;;;;;5052528;28;20911;-74
2021/04/11 13:20:10;;;;;;;1.50;0.77;;;21.40;22.30;;;;;;5052984;28;20441;-74
2021/04/11 13:22:46;;;;;;;1.60;0.70;;;21.20;22.80;;;;;;5052541;28;20433;-73
2021/04/11 13:25:28;;;;;;;1.80;0.90;;;21.00;23.80;;;;;;5052860;28;20487;-73
2021/04/11 13:28:02;;;;;;;2.20;0.70;;;20.70;24.00;;;;;;5052418;28;20492;-73
2021/04/11 13:30:32;;;;;;;1.70;0.83;;;20.50;23.80;;;;;;5052786;28;20446;-73
2021/04/11 13:33:03;;;;;;;1.77;0.70;;;20.50;24.40;;;;;;5052578;28;20441;-73
2021/04/11 13:35:35;;;;;;;4.40;0.90;;;20.40;24.50;;;;;;5048389;28;20429;-73
2021/04/11 13:38:06;;;;;;;2.63;1.10;;;20.20;24.50;;;;;;5053555;28;20900;-73
2021/04/11 13:40:36;;;;;;;1.50;0.67;;;20.10;25.50;;;;;;5050145;28;20464;-73
2021/04/11 13:43:17;;;;;;;1.47;0.70;;;20.10;25.60;;;;;;5052090;28;20482;-74
2021/04/11 13:45:56;;;;;;;1.60;0.70;;;20.10;25.90;;;;;;5046696;28;20444;-74
2021/04/11 13:48:52;;;;;;;1.80;0.80;;;20.30;24.80;;;;;;5051866;28;20491;-73